Aviation Digital Data Service (ADDS)

Output produced by METARs form (2220 UTC 18 December 2014)
found at http://www.aviationweather.gov/adds/metars/
 
METAR text: EPBY 182200Z 22011KT 7000 -RA BKN005 OVC009 09/09 Q1003
Conditions at: EPBY (BYDGOSZDZ , PL) observed 2200 UTC 18 December 2014
Temperature: 9.0°C (48°F)
Dewpoint: 9.0°C (48°F) [RH = 100%]
Pressure (altimeter): 29.62 inches Hg (1003.0 mb)
Winds: from the SW (220 degrees) at 13 MPH (11 knots; 5.7 m/s)
Visibility: 4 miles (7 km)
Ceiling: 500 feet AGL
Clouds: broken clouds at 500 feet AGL
overcast cloud deck at 900 feet AGL
Weather: -RA  (light rain)

Forecast for: EPBY (BYDGOSZDZ , PL)
Text: TAF EPBY 182030Z 1821/1906 22012KT 7000 BKN010
Forecast period: 2100 UTC 18 December 2014 to 0600 UTC 19 December 2014
Forecast type: FROM: standard forecast or significant change
Winds: from the SW (220 degrees) at 14 MPH (12 knots; 6.2 m/s)
Visibility: 4 miles (7 km)
Ceiling: 1000 feet AGL
Clouds: broken clouds at 1000 feet AGL
Weather: no significant weather forecast for this period
Text: TEMPO 1821/1906 3000 RA BR BKN005 BKN010
Forecast period: 2100 UTC 18 December 2014 to 0600 UTC 19 December 2014
Forecast type: TEMPORARY: The following changes expected for less than half the time period
Visibility: 1.86 miles (2.99 km)
Ceiling: 500 feet AGL
Clouds: broken clouds at 500 feet AGL
broken clouds at 1000 feet AGL
Weather: RA BR  (rain, mist)